sensor_id;sensor_type;location;lat;lon;timestamp;pressure;altitude;pressure_sealevel;temperature;humidity
7109;BME280;29079;41.930;25.558;2023-05-08T00:00:44;99874.41;;;14.40;74.32
7109;BME280;29079;41.930;25.558;2023-05-08T00:03:17;99870.41;;;14.98;70.70
7109;BME280;29079;41.930;25.558;2023-05-08T00:05:50;99871.72;;;15.73;75.01
7109;BME280;29079;41.930;25.558;2023-05-08T00:08:26;99863.38;;;15.50;69.45
7109;BME280;29079;41.930;25.558;2023-05-08T00:10:59;99859.94;;;14.51;70.73
7109;BME280;29079;41.930;25.558;2023-05-08T00:13:33;99854.38;;;14.17;73.38
7109;BME280;29079;41.930;25.558;2023-05-08T00:16:07;99854.47;;;14.25;74.69
7109;BME280;29079;41.930;25.558;2023-05-08T00:18:42;99858.00;;;14.43;75.91
7109;BME280;29079;41.930;25.558;2023-05-08T00:21:15;99855.88;;;14.65;74.61
7109;BME280;29079;41.930;25.558;2023-05-08T00:23:48;99859.31;;;15.20;74.96
7109;BME280;29079;41.930;25.558;2023-05-08T00:26:21;99858.59;;;15.09;71.09
7109;BME280;29079;41.930;25.558;2023-05-08T00:28:54;99861.94;;;14.85;72.50
7109;BME280;29079;41.930;25.558;2023-05-08T00:31:28;99862.63;;;14.87;73.10
7109;BME280;29079;41.930;25.558;2023-05-08T00:34:01;99867.22;;;14.41;78.06
7109;BME280;29079;41.930;25.558;2023-05-08T00:36:34;99869.69;;;13.88;73.21
7109;BME280;29079;41.930;25.558;2023-05-08T00:39:07;99866.13;;;13.88;73.15
7109;BME280;29079;41.930;25.558;2023-05-08T00:41:40;99859.84;;;13.41;75.06
7109;BME280;29079;41.930;25.558;2023-05-08T00:44:13;99865.22;;;14.43;75.83
7109;BME280;29079;41.930;25.558;2023-05-08T00:46:47;99856.44;;;13.87;73.38
7109;BME280;29079;41.930;25.558;2023-05-08T00:49:20;99858.56;;;13.46;77.16
7109;BME280;29079;41.930;25.558;2023-05-08T00:51:54;99863.88;;;14.11;73.68
7109;BME280;29079;41.930;25.558;2023-05-08T00:54:28;99861.75;;;14.15;74.32
7109;BME280;29079;41.930;25.558;2023-05-08T00:57:01;99858.75;;;13.72;78.38
7109;BME280;29079;41.930;25.558;2023-05-08T00:59:34;99865.69;;;14.20;72.26
7109;BME280;29079;41.930;25.558;2023-05-08T01:02:10;99867.09;;;13.69;74.79
7109;BME280;29079;41.930;25.558;2023-05-08T01:04:43;99861.91;;;14.31;72.10
7109;BME280;29079;41.930;25.558;2023-05-08T01:07:17;99865.75;;;13.83;73.58
7109;BME280;29079;41.930;25.558;2023-05-08T01:09:50;99871.66;;;13.58;73.60
7109;BME280;29079;41.930;25.558;2023-05-08T01:12:25;99879.47;;;13.80;74.08
7109;BME280;29079;41.930;25.558;2023-05-08T01:15:05;99874.94;;;13.80;73.60
7109;BME280;29079;41.930;25.558;2023-05-08T01:17:44;99880.66;;;13.00;75.85
7109;BME280;29079;41.930;25.558;2023-05-08T01:20:23;99876.22;;;13.48;73.14
7109;BME280;29079;41.930;25.558;2023-05-08T01:26:10;99868.28;;;13.84;71.96
7109;BME280;29079;41.930;25.558;2023-05-08T01:29:02;99874.81;;;14.00;72.93
7109;BME280;29079;41.930;25.558;2023-05-08T01:31:46;99868.47;;;13.35;71.55
7109;BME280;29079;41.930;25.558;2023-05-08T01:34:25;99883.59;;;13.17;73.86
7109;BME280;29079;41.930;25.558;2023-05-08T01:37:02;99878.81;;;13.96;71.59
7109;BME280;29079;41.930;25.558;2023-05-08T01:39:38;99879.78;;;13.39;69.37
7109;BME280;29079;41.930;25.558;2023-05-08T01:42:17;99885.66;;;13.52;72.47
7109;BME280;29079;41.930;25.558;2023-05-08T01:44:52;99877.91;;;13.30;70.12
7109;BME280;29079;41.930;25.558;2023-05-08T01:47:28;99887.31;;;12.77;69.73
7109;BME280;29079;41.930;25.558;2023-05-08T01:50:04;99884.44;;;13.17;69.91
7109;BME280;29079;41.930;25.558;2023-05-08T01:52:41;99885.09;;;13.49;70.18
7109;BME280;29079;41.930;25.558;2023-05-08T01:55:16;99887.09;;;14.02;72.34
7109;BME280;29079;41.930;25.558;2023-05-08T01:57:53;99891.47;;;13.75;70.43
7109;BME280;29079;41.930;25.558;2023-05-08T02:00:26;99893.94;;;13.59;70.58
7109;BME280;29079;41.930;25.558;2023-05-08T02:03:00;99891.09;;;13.61;68.31
7109;BME280;29079;41.930;25.558;2023-05-08T02:05:35;99890.94;;;13.62;70.75
7109;BME280;29079;41.930;25.558;2023-05-08T02:08:09;99892.09;;;12.83;72.76
7109;BME280;29079;41.930;25.558;2023-05-08T02:10:43;99899.16;;;12.45;76.64
7109;BME280;29079;41.930;25.558;2023-05-08T02:13:18;99893.94;;;12.53;76.40
7109;BME280;29079;41.930;25.558;2023-05-08T02:15:53;99882.59;;;13.18;78.53
7109;BME280;29079;41.930;25.558;2023-05-08T02:18:26;99884.88;;;13.70;75.43
7109;BME280;29079;41.930;25.558;2023-05-08T02:21:03;99875.88;;;12.65;79.11
7109;BME280;29079;41.930;25.558;2023-05-08T02:23:37;99879.13;;;12.49;77.47
7109;BME280;29079;41.930;25.558;2023-05-08T02:26:09;99884.59;;;12.18;80.09
7109;BME280;29079;41.930;25.558;2023-05-08T02:28:44;99885.88;;;12.24;79.71
7109;BME280;29079;41.930;25.558;2023-05-08T02:31:17;99892.78;;;12.46;81.02
7109;BME280;29079;41.930;25.558;2023-05-08T02:33:50;99885.13;;;13.29;79.74
7109;BME280;29079;41.930;25.558;2023-05-08T02:36:25;99885.59;;;12.95;73.11
7109;BME280;29079;41.930;25.558;2023-05-08T02:39:00;99880.97;;;12.78;70.26
7109;BME280;29079;41.930;25.558;2023-05-08T02:41:34;99873.66;;;12.50;72.12
7109;BME280;29079;41.930;25.558;2023-05-08T02:44:08;99877.56;;;13.05;71.44
7109;BME280;29079;41.930;25.558;2023-05-08T02:46:43;99881.53;;;12.62;69.85
7109;BME280;29079;41.930;25.558;2023-05-08T02:49:22;99879.28;;;12.57;72.24
7109;BME280;29079;41.930;25.558;2023-05-08T02:52:02;99876.75;;;12.36;71.50
7109;BME280;29079;41.930;25.558;2023-05-08T02:54:38;99882.50;;;12.70;68.96
7109;BME280;29079;41.930;25.558;2023-05-08T02:57:17;99882.34;;;12.13;74.19
7109;BME280;29079;41.930;25.558;2023-05-08T02:59:55;99876.00;;;13.12;76.19
7109;BME280;29079;41.930;25.558;2023-05-08T03:02:31;99872.59;;;13.67;74.04
7109;BME280;29079;41.930;25.558;2023-05-08T03:05:15;99886.50;;;13.81;72.66
7109;BME280;29079;41.930;25.558;2023-05-08T03:07:51;99886.50;;;14.08;69.85
7109;BME280;29079;41.930;25.558;2023-05-08T03:10:32;99880.69;;;13.85;71.97
7109;BME280;29079;41.930;25.558;2023-05-08T03:13:06;99883.31;;;13.67;68.86
7109;BME280;29079;41.930;25.558;2023-05-08T03:15:41;99891.16;;;13.51;70.48
7109;BME280;29079;41.930;25.558;2023-05-08T03:18:15;99894.06;;;12.81;68.06
7109;BME280;29079;41.930;25.558;2023-05-08T03:20:51;99903.94;;;12.70;69.62
7109;BME280;29079;41.930;25.558;2023-05-08T03:23:28;99904.19;;;11.88;76.05
7109;BME280;29079;41.930;25.558;2023-05-08T03:26:01;99898.06;;;11.97;77.94
7109;BME280;29079;41.930;25.558;2023-05-08T03:28:35;99904.81;;;11.70;79.11
7109;BME280;29079;41.930;25.558;2023-05-08T03:31:08;99913.66;;;11.61;79.79
7109;BME280;29079;41.930;25.558;2023-05-08T03:33:43;99916.75;;;11.35;80.14
7109;BME280;29079;41.930;25.558;2023-05-08T03:36:16;99916.38;;;10.97;81.85
7109;BME280;29079;41.930;25.558;2023-05-08T03:38:51;99919.22;;;11.27;80.66
7109;BME280;29079;41.930;25.558;2023-05-08T03:41:24;99908.94;;;11.22;80.44
7109;BME280;29079;41.930;25.558;2023-05-08T03:43:57;99909.81;;;11.23;80.90
7109;BME280;29079;41.930;25.558;2023-05-08T03:46:30;99915.31;;;11.52;80.25
7109;BME280;29079;41.930;25.558;2023-05-08T03:49:05;99923.06;;;11.55;80.98
7109;BME280;29079;41.930;25.558;2023-05-08T03:51:40;99920.47;;;11.75;79.53
7109;BME280;29079;41.930;25.558;2023-05-08T03:54:17;99919.84;;;11.92;81.63
7109;BME280;29079;41.930;25.558;2023-05-08T03:56:50;99921.72;;;11.71;79.49
7109;BME280;29079;41.930;25.558;2023-05-08T03:59:27;99934.97;;;11.82;79.61
7109;BME280;29079;41.930;25.558;2023-05-08T04:02:05;99934.78;;;11.64;79.79
7109;BME280;29079;41.930;25.558;2023-05-08T04:04:41;99936.19;;;11.16;80.62
7109;BME280;29079;41.930;25.558;2023-05-08T04:07:18;99923.41;;;11.72;81.99
7109;BME280;29079;41.930;25.558;2023-05-08T04:09:58;99929.59;;;11.41;79.28
7109;BME280;29079;41.930;25.558;2023-05-08T04:12:37;99922.03;;;11.46;80.75
7109;BME280;29079;41.930;25.558;2023-05-08T04:15:13;99928.25;;;11.78;78.38
7109;BME280;29079;41.930;25.558;2023-05-08T04:17:50;99925.25;;;11.50;78.66
7109;BME280;29079;41.930;25.558;2023-05-08T04:20:26;99928.88;;;11.60;78.71
7109;BME280;29079;41.930;25.558;2023-05-08T04:23:01;99931.00;;;11.97;77.76
7109;BME280;29079;41.930;25.558;2023-05-08T04:25:37;99927.91;;;11.71;77.88
7109;BME280;29079;41.930;25.558;2023-05-08T04:28:10;99928.47;;;11.44;79.36
7109;BME280;29079;41.930;25.558;2023-05-08T04:30:43;99926.81;;;11.83;78.11
7109;BME280;29079;41.930;25.558;2023-05-08T04:33:16;99941.88;;;12.06;77.05
7109;BME280;29079;41.930;25.558;2023-05-08T04:35:49;99934.84;;;11.83;78.77
7109;BME280;29079;41.930;25.558;2023-05-08T04:38:23;99940.03;;;12.06;77.90
7109;BME280;29079;41.930;25.558;2023-05-08T04:40:57;99940.59;;;12.00;77.89
7109;BME280;29079;41.930;25.558;2023-05-08T04:43:30;99940.97;;;11.64;79.69
7109;BME280;29079;41.930;25.558;2023-05-08T04:46:03;99931.69;;;11.68;79.74
7109;BME280;29079;41.930;25.558;2023-05-08T04:48:37;99927.25;;;11.48;81.08
7109;BME280;29079;41.930;25.558;2023-05-08T04:51:10;99926.81;;;11.74;80.35
7109;BME280;29079;41.930;25.558;2023-05-08T04:53:43;99929.16;;;11.67;80.69
7109;BME280;29079;41.930;25.558;2023-05-08T04:56:18;99924.69;;;11.77;80.71
7109;BME280;29079;41.930;25.558;2023-05-08T04:58:51;99919.47;;;12.07;79.36
7109;BME280;29079;41.930;25.558;2023-05-08T05:01:24;99923.06;;;12.17;78.89
7109;BME280;29079;41.930;25.558;2023-05-08T05:03:59;99919.47;;;11.97;80.01
7109;BME280;29079;41.930;25.558;2023-05-08T05:06:32;99916.88;;;12.46;81.92
7109;BME280;29079;41.930;25.558;2023-05-08T05:09:05;99918.72;;;12.65;77.00
7109;BME280;29079;41.930;25.558;2023-05-08T05:11:40;99913.72;;;13.58;77.40
7109;BME280;29079;41.930;25.558;2023-05-08T05:14:13;99914.25;;;13.99;75.59
7109;BME280;29079;41.930;25.558;2023-05-08T05:16:48;99918.38;;;13.56;74.86
7109;BME280;29079;41.930;25.558;2023-05-08T05:19:21;99919.72;;;13.80;72.15
7109;BME280;29079;41.930;25.558;2023-05-08T05:21:53;99920.81;;;13.20;73.70
7109;BME280;29079;41.930;25.558;2023-05-08T05:24:26;99925.91;;;13.23;73.06
7109;BME280;29079;41.930;25.558;2023-05-08T05:27:01;99915.31;;;13.41;72.51
7109;BME280;29079;41.930;25.558;2023-05-08T05:29:35;99916.16;;;13.22;73.32
7109;BME280;29079;41.930;25.558;2023-05-08T05:32:08;99921.81;;;13.38;72.51
7109;BME280;29079;41.930;25.558;2023-05-08T05:34:42;99927.72;;;13.22;72.86
7109;BME280;29079;41.930;25.558;2023-05-08T05:37:14;99924.84;;;14.19;73.92
7109;BME280;29079;41.930;25.558;2023-05-08T05:39:47;99929.56;;;14.35;69.71
7109;BME280;29079;41.930;25.558;2023-05-08T05:42:22;99921.28;;;14.28;69.40
7109;BME280;29079;41.930;25.558;2023-05-08T05:44:54;99918.94;;;13.60;70.49
7109;BME280;29079;41.930;25.558;2023-05-08T05:47:28;99922.66;;;13.76;70.46
7109;BME280;29079;41.930;25.558;2023-05-08T05:50:01;99912.97;;;13.66;71.62
7109;BME280;29079;41.930;25.558;2023-05-08T05:52:34;99924.38;;;13.11;71.69
7109;BME280;29079;41.930;25.558;2023-05-08T05:55:07;99917.44;;;13.75;71.64
7109;BME280;29079;41.930;25.558;2023-05-08T05:57:41;99911.59;;;14.81;72.62
7109;BME280;29079;41.930;25.558;2023-05-08T06:00:14;99912.16;;;14.39;68.20
7109;BME280;29079;41.930;25.558;2023-05-08T06:02:48;99914.63;;;14.32;70.84
7109;BME280;29079;41.930;25.558;2023-05-08T06:05:21;99907.41;;;14.51;68.65
7109;BME280;29079;41.930;25.558;2023-05-08T06:07:54;99901.00;;;13.88;69.33
7109;BME280;29079;41.930;25.558;2023-05-08T06:10:27;99907.16;;;14.26;68.99
7109;BME280;29079;41.930;25.558;2023-05-08T06:13:01;99906.47;;;14.24;68.98
7109;BME280;29079;41.930;25.558;2023-05-08T06:15:35;99908.53;;;14.30;72.92
7109;BME280;29079;41.930;25.558;2023-05-08T06:18:08;99901.47;;;14.93;67.17
7109;BME280;29079;41.930;25.558;2023-05-08T06:20:41;99894.81;;;14.33;68.83
7109;BME280;29079;41.930;25.558;2023-05-08T06:23:14;99896.09;;;14.93;67.08
7109;BME280;29079;41.930;25.558;2023-05-08T06:25:47;99889.41;;;14.61;69.33
7109;BME280;29079;41.930;25.558;2023-05-08T06:28:21;99890.41;;;14.60;67.65
7109;BME280;29079;41.930;25.558;2023-05-08T06:30:56;99888.25;;;14.45;68.02
7109;BME280;29079;41.930;25.558;2023-05-08T06:33:29;99895.31;;;14.47;67.84
7109;BME280;29079;41.930;25.558;2023-05-08T06:36:02;99891.75;;;15.00;70.76
7109;BME280;29079;41.930;25.558;2023-05-08T06:38:36;99884.41;;;15.55;67.39
7109;BME280;29079;41.930;25.558;2023-05-08T06:41:09;99886.03;;;16.25;73.59
7109;BME280;29079;41.930;25.558;2023-05-08T06:43:47;99887.19;;;16.14;64.53
7109;BME280;29079;41.930;25.558;2023-05-08T06:46:19;99885.75;;;16.44;63.40
7109;BME280;29079;41.930;25.558;2023-05-08T06:48:53;99874.13;;;15.50;64.49
7109;BME280;29079;41.930;25.558;2023-05-08T06:51:26;99868.94;;;16.67;74.49
7109;BME280;29079;41.930;25.558;2023-05-08T06:53:59;99871.78;;;16.65;70.51
7109;BME280;29079;41.930;25.558;2023-05-08T06:56:32;99872.31;;;16.69;61.18
7109;BME280;29079;41.930;25.558;2023-05-08T06:59:07;99868.63;;;16.86;70.78
7109;BME280;29079;41.930;25.558;2023-05-08T07:01:39;99871.28;;;17.28;66.15
7109;BME280;29079;41.930;25.558;2023-05-08T07:04:13;99868.22;;;17.39;62.20
7109;BME280;29079;41.930;25.558;2023-05-08T07:06:46;99874.19;;;16.93;60.64
7109;BME280;29079;41.930;25.558;2023-05-08T07:09:19;99875.53;;;17.14;60.87
7109;BME280;29079;41.930;25.558;2023-05-08T07:11:52;99884.44;;;16.48;63.07
7109;BME280;29079;41.930;25.558;2023-05-08T07:14:26;99866.84;;;17.51;69.01
7109;BME280;29079;41.930;25.558;2023-05-08T07:17:01;99868.78;;;17.74;60.51
7109;BME280;29079;41.930;25.558;2023-05-08T07:19:37;99862.59;;;17.57;62.68
7109;BME280;29079;41.930;25.558;2023-05-08T07:22:10;99855.72;;;17.54;69.50
7109;BME280;29079;41.930;25.558;2023-05-08T07:24:43;99852.97;;;16.98;63.01
7109;BME280;29079;41.930;25.558;2023-05-08T07:27:17;99850.63;;;16.95;62.57
7109;BME280;29079;41.930;25.558;2023-05-08T07:29:52;99853.78;;;16.74;64.61
7109;BME280;29079;41.930;25.558;2023-05-08T07:32:25;99844.97;;;17.38;73.82
7109;BME280;29079;41.930;25.558;2023-05-08T07:34:58;99848.88;;;18.15;67.82
7109;BME280;29079;41.930;25.558;2023-05-08T07:37:31;99849.53;;;17.94;64.53
7109;BME280;29079;41.930;25.558;2023-05-08T07:40:05;99846.00;;;17.37;62.37
7109;BME280;29079;41.930;25.558;2023-05-08T07:42:39;99847.38;;;18.12;71.79
7109;BME280;29079;41.930;25.558;2023-05-08T07:45:14;99849.28;;;18.35;68.91
7109;BME280;29079;41.930;25.558;2023-05-08T07:47:47;99857.63;;;17.94;60.90
7109;BME280;29079;41.930;25.558;2023-05-08T07:50:21;99851.56;;;18.23;62.87
7109;BME280;29079;41.930;25.558;2023-05-08T07:52:55;99852.06;;;17.39;61.93
7109;BME280;29079;41.930;25.558;2023-05-08T07:55:28;99849.56;;;17.77;62.37
7109;BME280;29079;41.930;25.558;2023-05-08T07:58:01;99850.66;;;18.31;65.90
7109;BME280;29079;41.930;25.558;2023-05-08T08:00:35;99852.16;;;17.62;62.33
7109;BME280;29079;41.930;25.558;2023-05-08T08:03:09;99844.13;;;17.37;62.52
7109;BME280;29079;41.930;25.558;2023-05-08T08:05:42;99842.22;;;18.02;62.70
7109;BME280;29079;41.930;25.558;2023-05-08T08:08:15;99833.56;;;17.11;63.06
7109;BME280;29079;41.930;25.558;2023-05-08T08:10:49;99825.91;;;18.65;73.16
7109;BME280;29079;41.930;25.558;2023-05-08T08:13:22;99826.50;;;18.06;61.28
7109;BME280;29079;41.930;25.558;2023-05-08T08:15:57;99835.56;;;17.26;62.34
7109;BME280;29079;41.930;25.558;2023-05-08T08:18:32;99827.50;;;17.09;62.86
7109;BME280;29079;41.930;25.558;2023-05-08T08:21:05;99822.66;;;18.70;71.42
7109;BME280;29079;41.930;25.558;2023-05-08T08:23:38;99824.56;;;18.84;63.98
7109;BME280;29079;41.930;25.558;2023-05-08T08:26:12;99825.31;;;18.55;59.89
7109;BME280;29079;41.930;25.558;2023-05-08T08:28:45;99826.75;;;18.42;59.54
7109;BME280;29079;41.930;25.558;2023-05-08T08:31:19;99826.88;;;17.95;60.99
7109;BME280;29079;41.930;25.558;2023-05-08T08:33:52;99813.53;;;18.71;72.47
7109;BME280;29079;41.930;25.558;2023-05-08T08:36:25;99814.44;;;18.86;64.77
7109;BME280;29079;41.930;25.558;2023-05-08T08:38:58;99811.25;;;18.59;59.44
7109;BME280;29079;41.930;25.558;2023-05-08T08:41:31;99807.94;;;18.72;59.72
7109;BME280;29079;41.930;25.558;2023-05-08T08:44:05;99806.13;;;18.65;60.66
7109;BME280;29079;41.930;25.558;2023-05-08T08:46:43;99806.47;;;18.23;60.83
7109;BME280;29079;41.930;25.558;2023-05-08T08:49:22;99813.66;;;18.31;60.91
7109;BME280;29079;41.930;25.558;2023-05-08T08:51:57;99799.81;;;18.95;65.26
7109;BME280;29079;41.930;25.558;2023-05-08T08:54:32;99798.59;;;19.43;59.01
7109;BME280;29079;41.930;25.558;2023-05-08T08:57:06;99798.50;;;18.91;60.21
7109;BME280;29079;41.930;25.558;2023-05-08T08:59:41;99788.47;;;18.77;62.78
7109;BME280;29079;41.930;25.558;2023-05-08T09:02:16;99786.41;;;19.32;69.59
7109;BME280;29079;41.930;25.558;2023-05-08T09:04:50;99783.22;;;19.58;66.50
7109;BME280;29079;41.930;25.558;2023-05-08T09:07:24;99785.00;;;19.21;58.69
7109;BME280;29079;41.930;25.558;2023-05-08T09:09:57;99781.59;;;18.51;60.06
7109;BME280;29079;41.930;25.558;2023-05-08T09:12:32;99780.16;;;19.02;62.99
7109;BME280;29079;41.930;25.558;2023-05-08T09:15:05;99777.44;;;18.87;64.83
7109;BME280;29079;41.930;25.558;2023-05-08T09:17:40;99773.72;;;19.03;59.84
7109;BME280;29079;41.930;25.558;2023-05-08T09:20:13;99775.31;;;19.12;64.47
7109;BME280;29079;41.930;25.558;2023-05-08T09:22:46;99768.66;;;19.59;62.50
7109;BME280;29079;41.930;25.558;2023-05-08T09:25:20;99772.47;;;19.50;58.55
7109;BME280;29079;41.930;25.558;2023-05-08T09:27:56;99765.28;;;19.57;64.15
7109;BME280;29079;41.930;25.558;2023-05-08T09:30:50;99765.03;;;19.52;62.88
7109;BME280;29079;41.930;25.558;2023-05-08T09:33:25;99763.84;;;19.25;59.39
7109;BME280;29079;41.930;25.558;2023-05-08T09:35:59;99758.03;;;19.58;62.58
7109;BME280;29079;41.930;25.558;2023-05-08T09:38:32;99760.94;;;19.26;58.49
7109;BME280;29079;41.930;25.558;2023-05-08T09:41:06;99755.84;;;19.68;62.89
7109;BME280;29079;41.930;25.558;2023-05-08T09:43:40;99754.69;;;19.92;62.96
7109;BME280;29079;41.930;25.558;2023-05-08T09:46:20;99742.28;;;19.83;60.08
7109;BME280;29079;41.930;25.558;2023-05-08T09:48:56;99750.03;;;19.35;58.32
7109;BME280;29079;41.930;25.558;2023-05-08T09:51:30;99747.63;;;19.61;57.69
7109;BME280;29079;41.930;25.558;2023-05-08T09:54:03;99752.56;;;19.73;62.13
7109;BME280;29079;41.930;25.558;2023-05-08T09:56:48;99739.13;;;20.01;62.81
7109;BME280;29079;41.930;25.558;2023-05-08T09:59:22;99733.22;;;19.76;62.47
7109;BME280;29079;41.930;25.558;2023-05-08T10:01:55;99726.31;;;20.10;56.17
7109;BME280;29079;41.930;25.558;2023-05-08T10:04:32;99730.53;;;19.76;56.51
7109;BME280;29079;41.930;25.558;2023-05-08T10:07:05;99726.03;;;19.83;60.51
7109;BME280;29079;41.930;25.558;2023-05-08T10:09:38;99721.28;;;20.07;61.22
7109;BME280;29079;41.930;25.558;2023-05-08T10:12:21;99709.81;;;20.26;62.27
7109;BME280;29079;41.930;25.558;2023-05-08T10:14:54;99710.13;;;19.95;57.51
7109;BME280;29079;41.930;25.558;2023-05-08T10:17:29;99716.13;;;20.33;58.54
7109;BME280;29079;41.930;25.558;2023-05-08T10:20:09;99713.63;;;20.39;57.44
7109;BME280;29079;41.930;25.558;2023-05-08T10:22:43;99714.13;;;20.21;56.50
7109;BME280;29079;41.930;25.558;2023-05-08T10:25:19;99717.47;;;20.23;58.64
7109;BME280;29079;41.930;25.558;2023-05-08T10:27:53;99704.56;;;20.46;56.82
7109;BME280;29079;41.930;25.558;2023-05-08T10:30:28;99703.28;;;20.21;56.41
7109;BME280;29079;41.930;25.558;2023-05-08T10:33:02;99698.19;;;20.11;56.95
7109;BME280;29079;41.930;25.558;2023-05-08T10:35:41;99692.91;;;20.52;56.17
7109;BME280;29079;41.930;25.558;2023-05-08T10:38:14;99682.00;;;20.46;55.27
7109;BME280;29079;41.930;25.558;2023-05-08T10:40:48;99680.59;;;20.50;55.76
7109;BME280;29079;41.930;25.558;2023-05-08T10:43:23;99674.63;;;20.61;56.68
7109;BME280;29079;41.930;25.558;2023-05-08T10:45:56;99681.97;;;20.96;56.14
7109;BME280;29079;41.930;25.558;2023-05-08T10:48:31;99674.09;;;21.08;57.90
7109;BME280;29079;41.930;25.558;2023-05-08T10:51:09;99669.94;;;21.18;54.69
7109;BME280;29079;41.930;25.558;2023-05-08T10:53:48;99675.94;;;21.00;51.58
7109;BME280;29079;41.930;25.558;2023-05-08T10:56:26;99665.56;;;20.76;53.27
7109;BME280;29079;41.930;25.558;2023-05-08T10:58:59;99670.19;;;20.82;52.66
7109;BME280;29079;41.930;25.558;2023-05-08T11:01:32;99654.69;;;21.11;56.28
7109;BME280;29079;41.930;25.558;2023-05-08T11:04:12;99666.97;;;21.07;51.64
7109;BME280;29079;41.930;25.558;2023-05-08T11:06:52;99664.06;;;21.08;51.87
7109;BME280;29079;41.930;25.558;2023-05-08T11:09:26;99663.56;;;20.91;52.94
7109;BME280;29079;41.930;25.558;2023-05-08T11:12:05;99654.53;;;21.19;56.60
7109;BME280;29079;41.930;25.558;2023-05-08T11:14:40;99651.56;;;21.14;51.69
7109;BME280;29079;41.930;25.558;2023-05-08T11:17:14;99642.00;;;21.25;55.50
7109;BME280;29079;41.930;25.558;2023-05-08T11:19:55;99641.13;;;21.11;52.31
7109;BME280;29079;41.930;25.558;2023-05-08T11:22:30;99649.47;;;21.16;52.79
7109;BME280;29079;41.930;25.558;2023-05-08T11:25:04;99641.53;;;21.14;53.42
7109;BME280;29079;41.930;25.558;2023-05-08T11:27:38;99633.06;;;21.31;53.59
7109;BME280;29079;41.930;25.558;2023-05-08T11:30:19;99633.47;;;21.34;53.78
7109;BME280;29079;41.930;25.558;2023-05-08T11:32:57;99635.56;;;21.32;53.78
7109;BME280;29079;41.930;25.558;2023-05-08T11:35:39;99630.78;;;21.48;52.90
7109;BME280;29079;41.930;25.558;2023-05-08T11:38:14;99632.31;;;21.57;56.98
7109;BME280;29079;41.930;25.558;2023-05-08T11:40:53;99628.63;;;21.23;52.63
7109;BME280;29079;41.930;25.558;2023-05-08T11:43:44;99630.22;;;21.04;53.49
7109;BME280;29079;41.930;25.558;2023-05-08T11:46:18;99624.06;;;21.30;54.03
7109;BME280;29079;41.930;25.558;2023-05-08T11:48:57;99620.94;;;21.27;53.85
7109;BME280;29079;41.930;25.558;2023-05-08T11:51:33;99620.00;;;21.61;55.44
7109;BME280;29079;41.930;25.558;2023-05-08T11:54:09;99608.50;;;21.59;52.42
7109;BME280;29079;41.930;25.558;2023-05-08T11:56:42;99612.88;;;21.53;51.96
7109;BME280;29079;41.930;25.558;2023-05-08T11:59:18;99612.84;;;21.47;51.53
7109;BME280;29079;41.930;25.558;2023-05-08T12:01:52;99610.34;;;21.45;53.54
7109;BME280;29079;41.930;25.558;2023-05-08T12:04:28;99603.81;;;21.33;52.72
7109;BME280;29079;41.930;25.558;2023-05-08T12:07:01;99593.19;;;21.31;54.74
7109;BME280;29079;41.930;25.558;2023-05-08T12:09:36;99585.50;;;21.55;54.83
7109;BME280;29079;41.930;25.558;2023-05-08T12:12:09;99590.31;;;21.53;51.49
7109;BME280;29079;41.930;25.558;2023-05-08T12:14:41;99581.34;;;21.59;51.24
7109;BME280;29079;41.930;25.558;2023-05-08T12:17:15;99579.69;;;21.65;54.61
7109;BME280;29079;41.930;25.558;2023-05-08T12:19:52;99575.25;;;21.44;52.14
7109;BME280;29079;41.930;25.558;2023-05-08T12:22:25;99572.78;;;21.62;50.93
7109;BME280;29079;41.930;25.558;2023-05-08T12:25:00;99564.03;;;21.73;51.91
7109;BME280;29079;41.930;25.558;2023-05-08T12:27:34;99562.78;;;21.83;53.69
7109;BME280;29079;41.930;25.558;2023-05-08T12:30:09;99569.88;;;21.97;54.03
7109;BME280;29079;41.930;25.558;2023-05-08T12:32:42;99568.19;;;21.89;49.95
7109;BME280;29079;41.930;25.558;2023-05-08T12:35:17;99562.97;;;21.88;54.94
7109;BME280;29079;41.930;25.558;2023-05-08T12:37:50;99556.50;;;21.89;50.60
7109;BME280;29079;41.930;25.558;2023-05-08T12:40:26;99558.59;;;21.87;49.95
7109;BME280;29079;41.930;25.558;2023-05-08T12:42:59;99563.63;;;21.83;50.04
7109;BME280;29079;41.930;25.558;2023-05-08T12:45:34;99556.09;;;21.85;50.30
7109;BME280;29079;41.930;25.558;2023-05-08T12:48:09;99556.91;;;21.99;55.02
7109;BME280;29079;41.930;25.558;2023-05-08T12:50:43;99550.66;;;21.85;50.26
7109;BME280;29079;41.930;25.558;2023-05-08T12:53:17;99550.25;;;22.02;56.89
7109;BME280;29079;41.930;25.558;2023-05-08T12:55:52;99541.06;;;21.83;53.14
7109;BME280;29079;41.930;25.558;2023-05-08T12:58:25;99542.31;;;22.00;51.89
7109;BME280;29079;41.930;25.558;2023-05-08T13:01:05;99538.91;;;22.12;52.37
7109;BME280;29079;41.930;25.558;2023-05-08T13:03:40;99543.31;;;22.13;52.94
7109;BME280;29079;41.930;25.558;2023-05-08T13:06:22;99544.97;;;22.20;53.09
7109;BME280;29079;41.930;25.558;2023-05-08T13:08:55;99546.03;;;22.19;50.67
7109;BME280;29079;41.930;25.558;2023-05-08T13:11:30;99538.69;;;22.20;49.71
7109;BME280;29079;41.930;25.558;2023-05-08T13:14:04;99546.84;;;22.20;52.30
7109;BME280;29079;41.930;25.558;2023-05-08T13:16:41;99533.69;;;22.23;53.88
7109;BME280;29079;41.930;25.558;2023-05-08T13:19:15;99548.09;;;22.17;50.55
7109;BME280;29079;41.930;25.558;2023-05-08T13:21:48;99545.63;;;22.09;49.88
7109;BME280;29079;41.930;25.558;2023-05-08T13:24:23;99546.88;;;22.00;49.21
7109;BME280;29079;41.930;25.558;2023-05-08T13:26:59;99545.19;;;22.19;54.14
7109;BME280;29079;41.930;25.558;2023-05-08T13:29:32;99550.00;;;22.17;49.85
7109;BME280;29079;41.930;25.558;2023-05-08T13:32:05;99533.47;;;22.12;49.03
7109;BME280;29079;41.930;25.558;2023-05-08T13:34:38;99532.44;;;22.13;53.03
7109;BME280;29079;41.930;25.558;2023-05-08T13:37:21;99532.88;;;22.16;50.98
7109;BME280;29079;41.930;25.558;2023-05-08T13:39:54;99526.78;;;22.14;50.72
7109;BME280;29079;41.930;25.558;2023-05-08T13:42:28;99537.66;;;22.14;50.04